Crystal, North Dakota
Current Conditions -  °F | °C
As of 9:35 AM on Thursday 30 Oct 2014 (Local Time) from K2C8 Reporting Station
Overcast Overcast  
Wind Chill: 22°   Ceiling: 1400
Heat Index: 34°   Visibility: 10mi
Dew Point: 28°   Wind: 21mph
Humidity: 81%   Direction: 360°N
Pressure: 30.26"   Gusts: 26mph
Location:  48.6°N, 97.67°W
Report Text: K2C8 301435Z AUTO 36018G23KT 10SM BKN014 OVC021 01/M02 A3026 RMK AO2
Loading
Personal Weather Stations






























Interactive Weather Map
Tropical Storm Tracking
New forecast layout! Learn more

10-Day Weather Forecast

Advertisements
Track Severe Weather on mobile